sensor_id;sensor_type;location;lat;lon;timestamp;temperature;humidity
81192;DHT22;70665;47.652;-2.730;2023-12-22T00:01:05;12.90;88.20
81192;DHT22;70665;47.652;-2.730;2023-12-22T00:03:31;12.90;88.00
81192;DHT22;70665;47.652;-2.730;2023-12-22T00:05:56;13.00;87.90
81192;DHT22;70665;47.652;-2.730;2023-12-22T00:08:22;12.90;87.80
81192;DHT22;70665;47.652;-2.730;2023-12-22T00:10:49;12.80;88.10
81192;DHT22;70665;47.652;-2.730;2023-12-22T00:13:15;13.00;87.90
81192;DHT22;70665;47.652;-2.730;2023-12-22T00:15:40;12.90;87.90
81192;DHT22;70665;47.652;-2.730;2023-12-22T00:18:07;12.90;88.20
81192;DHT22;70665;47.652;-2.730;2023-12-22T00:20:33;12.90;88.30
81192;DHT22;70665;47.652;-2.730;2023-12-22T00:22:59;12.80;88.70
81192;DHT22;70665;47.652;-2.730;2023-12-22T00:25:24;12.80;89.20
81192;DHT22;70665;47.652;-2.730;2023-12-22T00:27:50;12.70;90.30
81192;DHT22;70665;47.652;-2.730;2023-12-22T00:30:16;12.60;91.50
81192;DHT22;70665;47.652;-2.730;2023-12-22T00:32:41;12.60;91.70
81192;DHT22;70665;47.652;-2.730;2023-12-22T00:35:08;12.50;92.70
81192;DHT22;70665;47.652;-2.730;2023-12-22T00:37:33;12.40;92.60
81192;DHT22;70665;47.652;-2.730;2023-12-22T00:39:59;12.50;92.60
81192;DHT22;70665;47.652;-2.730;2023-12-22T00:42:25;12.40;92.60
81192;DHT22;70665;47.652;-2.730;2023-12-22T00:44:51;12.20;92.70
81192;DHT22;70665;47.652;-2.730;2023-12-22T00:47:17;12.10;93.70
81192;DHT22;70665;47.652;-2.730;2023-12-22T00:49:42;12.10;94.30
81192;DHT22;70665;47.652;-2.730;2023-12-22T00:52:08;12.10;94.00
81192;DHT22;70665;47.652;-2.730;2023-12-22T00:54:33;12.10;92.80
81192;DHT22;70665;47.652;-2.730;2023-12-22T00:56:59;12.30;92.60
81192;DHT22;70665;47.652;-2.730;2023-12-22T00:59:25;12.40;91.30
81192;DHT22;70665;47.652;-2.730;2023-12-22T01:01:50;12.40;91.30
81192;DHT22;70665;47.652;-2.730;2023-12-22T01:04:16;12.40;91.00
81192;DHT22;70665;47.652;-2.730;2023-12-22T01:06:42;12.50;90.50
81192;DHT22;70665;47.652;-2.730;2023-12-22T01:09:07;12.60;90.00
81192;DHT22;70665;47.652;-2.730;2023-12-22T01:11:33;12.70;89.90
81192;DHT22;70665;47.652;-2.730;2023-12-22T01:13:59;12.60;89.80
81192;DHT22;70665;47.652;-2.730;2023-12-22T01:16:24;12.60;89.30
81192;DHT22;70665;47.652;-2.730;2023-12-22T01:18:50;12.80;89.40
81192;DHT22;70665;47.652;-2.730;2023-12-22T01:21:16;12.80;89.20
81192;DHT22;70665;47.652;-2.730;2023-12-22T01:23:42;12.70;89.20
81192;DHT22;70665;47.652;-2.730;2023-12-22T01:26:08;12.80;89.10
81192;DHT22;70665;47.652;-2.730;2023-12-22T01:28:34;12.70;89.00
81192;DHT22;70665;47.652;-2.730;2023-12-22T01:31:00;12.50;89.10
81192;DHT22;70665;47.652;-2.730;2023-12-22T01:33:25;12.50;89.60
81192;DHT22;70665;47.652;-2.730;2023-12-22T01:35:51;12.50;89.10
81192;DHT22;70665;47.652;-2.730;2023-12-22T01:38:17;12.40;89.30
81192;DHT22;70665;47.652;-2.730;2023-12-22T01:40:43;12.50;89.00
81192;DHT22;70665;47.652;-2.730;2023-12-22T01:43:08;12.60;89.20
81192;DHT22;70665;47.652;-2.730;2023-12-22T01:45:35;12.50;89.00
81192;DHT22;70665;47.652;-2.730;2023-12-22T01:48:02;12.40;89.40
81192;DHT22;70665;47.652;-2.730;2023-12-22T01:50:28;12.50;89.20
81192;DHT22;70665;47.652;-2.730;2023-12-22T01:52:54;12.50;89.70
81192;DHT22;70665;47.652;-2.730;2023-12-22T01:55:20;12.50;89.80
81192;DHT22;70665;47.652;-2.730;2023-12-22T01:57:46;12.30;89.70
81192;DHT22;70665;47.652;-2.730;2023-12-22T02:00:13;12.50;89.50
81192;DHT22;70665;47.652;-2.730;2023-12-22T02:02:40;12.50;89.60
81192;DHT22;70665;47.652;-2.730;2023-12-22T02:05:08;12.50;89.40
81192;DHT22;70665;47.652;-2.730;2023-12-22T02:07:38;12.40;89.70
81192;DHT22;70665;47.652;-2.730;2023-12-22T02:10:09;12.40;90.00
81192;DHT22;70665;47.652;-2.730;2023-12-22T02:12:36;12.50;90.20
81192;DHT22;70665;47.652;-2.730;2023-12-22T02:15:02;12.40;90.20
81192;DHT22;70665;47.652;-2.730;2023-12-22T02:20:13;12.40;90.50
81192;DHT22;70665;47.652;-2.730;2023-12-22T02:22:38;12.10;90.50
81192;DHT22;70665;47.652;-2.730;2023-12-22T02:25:04;12.20;90.60
81192;DHT22;70665;47.652;-2.730;2023-12-22T02:27:49;12.10;90.30
81192;DHT22;70665;47.652;-2.730;2023-12-22T02:30:26;12.30;90.40
81192;DHT22;70665;47.652;-2.730;2023-12-22T02:33:00;12.30;90.40
81192;DHT22;70665;47.652;-2.730;2023-12-22T02:35:28;12.10;90.70
81192;DHT22;70665;47.652;-2.730;2023-12-22T02:37:57;12.00;90.80
81192;DHT22;70665;47.652;-2.730;2023-12-22T02:40:23;12.10;90.50
81192;DHT22;70665;47.652;-2.730;2023-12-22T02:42:51;11.90;90.80
81192;DHT22;70665;47.652;-2.730;2023-12-22T02:45:18;12.10;90.30
81192;DHT22;70665;47.652;-2.730;2023-12-22T02:47:45;12.10;90.70
81192;DHT22;70665;47.652;-2.730;2023-12-22T02:50:12;12.20;90.40
81192;DHT22;70665;47.652;-2.730;2023-12-22T02:52:38;12.20;90.30
81192;DHT22;70665;47.652;-2.730;2023-12-22T02:55:04;12.10;90.40
81192;DHT22;70665;47.652;-2.730;2023-12-22T02:57:30;12.10;90.20
81192;DHT22;70665;47.652;-2.730;2023-12-22T02:59:56;12.20;90.20
81192;DHT22;70665;47.652;-2.730;2023-12-22T03:02:22;12.20;90.10
81192;DHT22;70665;47.652;-2.730;2023-12-22T03:04:47;12.30;89.90
81192;DHT22;70665;47.652;-2.730;2023-12-22T03:07:13;12.30;89.80
81192;DHT22;70665;47.652;-2.730;2023-12-22T03:09:39;12.20;89.80
81192;DHT22;70665;47.652;-2.730;2023-12-22T03:12:06;12.30;89.60
81192;DHT22;70665;47.652;-2.730;2023-12-22T03:14:32;12.40;89.50
81192;DHT22;70665;47.652;-2.730;2023-12-22T03:17:02;12.40;89.60
81192;DHT22;70665;47.652;-2.730;2023-12-22T03:19:28;12.40;89.60
81192;DHT22;70665;47.652;-2.730;2023-12-22T03:21:54;12.30;90.00
81192;DHT22;70665;47.652;-2.730;2023-12-22T03:24:20;12.30;89.90
81192;DHT22;70665;47.652;-2.730;2023-12-22T03:26:48;12.10;90.00
81192;DHT22;70665;47.652;-2.730;2023-12-22T03:29:14;12.20;90.20
81192;DHT22;70665;47.652;-2.730;2023-12-22T03:31:39;12.30;90.30
81192;DHT22;70665;47.652;-2.730;2023-12-22T03:34:05;12.30;89.80
81192;DHT22;70665;47.652;-2.730;2023-12-22T03:36:31;12.10;90.00
81192;DHT22;70665;47.652;-2.730;2023-12-22T03:38:57;12.10;90.10
81192;DHT22;70665;47.652;-2.730;2023-12-22T03:41:22;12.10;90.10
81192;DHT22;70665;47.652;-2.730;2023-12-22T03:43:48;12.10;90.00
81192;DHT22;70665;47.652;-2.730;2023-12-22T03:46:13;12.20;90.20
81192;DHT22;70665;47.652;-2.730;2023-12-22T03:48:39;12.00;90.30
81192;DHT22;70665;47.652;-2.730;2023-12-22T03:51:05;12.00;90.60
81192;DHT22;70665;47.652;-2.730;2023-12-22T03:53:30;12.10;90.50
81192;DHT22;70665;47.652;-2.730;2023-12-22T03:55:56;12.10;90.40
81192;DHT22;70665;47.652;-2.730;2023-12-22T03:58:22;12.30;90.10
81192;DHT22;70665;47.652;-2.730;2023-12-22T04:00:47;12.30;90.00
81192;DHT22;70665;47.652;-2.730;2023-12-22T04:03:13;12.20;90.00
81192;DHT22;70665;47.652;-2.730;2023-12-22T04:05:39;12.30;89.90
81192;DHT22;70665;47.652;-2.730;2023-12-22T04:08:05;12.40;89.90
81192;DHT22;70665;47.652;-2.730;2023-12-22T04:10:31;12.50;89.80
81192;DHT22;70665;47.652;-2.730;2023-12-22T04:12:56;12.30;89.50
81192;DHT22;70665;47.652;-2.730;2023-12-22T04:15:22;12.50;89.70
81192;DHT22;70665;47.652;-2.730;2023-12-22T04:17:47;12.40;89.70
81192;DHT22;70665;47.652;-2.730;2023-12-22T04:20:13;12.60;89.50
81192;DHT22;70665;47.652;-2.730;2023-12-22T04:22:39;12.40;89.60
81192;DHT22;70665;47.652;-2.730;2023-12-22T04:25:05;12.30;89.70
81192;DHT22;70665;47.652;-2.730;2023-12-22T04:27:31;12.40;89.80
81192;DHT22;70665;47.652;-2.730;2023-12-22T04:29:57;12.30;89.70
81192;DHT22;70665;47.652;-2.730;2023-12-22T04:32:23;12.30;89.60
81192;DHT22;70665;47.652;-2.730;2023-12-22T04:34:48;12.30;89.70
81192;DHT22;70665;47.652;-2.730;2023-12-22T04:37:14;12.10;89.70
81192;DHT22;70665;47.652;-2.730;2023-12-22T04:39:40;12.10;89.70
81192;DHT22;70665;47.652;-2.730;2023-12-22T04:42:05;12.30;89.40
81192;DHT22;70665;47.652;-2.730;2023-12-22T04:44:31;12.30;89.50
81192;DHT22;70665;47.652;-2.730;2023-12-22T04:46:57;12.40;89.70
81192;DHT22;70665;47.652;-2.730;2023-12-22T04:49:22;12.20;90.00
81192;DHT22;70665;47.652;-2.730;2023-12-22T04:51:48;12.20;90.30
81192;DHT22;70665;47.652;-2.730;2023-12-22T04:54:13;12.00;90.50
81192;DHT22;70665;47.652;-2.730;2023-12-22T04:56:39;12.00;90.70
81192;DHT22;70665;47.652;-2.730;2023-12-22T04:59:05;12.00;90.90
81192;DHT22;70665;47.652;-2.730;2023-12-22T05:01:30;12.00;90.80
81192;DHT22;70665;47.652;-2.730;2023-12-22T05:03:56;12.00;90.80
81192;DHT22;70665;47.652;-2.730;2023-12-22T05:06:22;11.80;90.80
81192;DHT22;70665;47.652;-2.730;2023-12-22T05:08:47;11.80;90.80
81192;DHT22;70665;47.652;-2.730;2023-12-22T05:11:13;12.00;90.40
81192;DHT22;70665;47.652;-2.730;2023-12-22T05:13:39;12.10;90.20
81192;DHT22;70665;47.652;-2.730;2023-12-22T05:16:05;12.10;90.20
81192;DHT22;70665;47.652;-2.730;2023-12-22T05:18:31;12.20;90.00
81192;DHT22;70665;47.652;-2.730;2023-12-22T05:20:57;12.20;89.90
81192;DHT22;70665;47.652;-2.730;2023-12-22T05:23:22;12.10;90.80
81192;DHT22;70665;47.652;-2.730;2023-12-22T05:25:48;12.00;91.60
81192;DHT22;70665;47.652;-2.730;2023-12-22T05:28:13;11.90;92.70
81192;DHT22;70665;47.652;-2.730;2023-12-22T05:30:39;11.80;94.60
81192;DHT22;70665;47.652;-2.730;2023-12-22T05:33:04;11.90;95.30
81192;DHT22;70665;47.652;-2.730;2023-12-22T05:35:31;11.80;95.60
81192;DHT22;70665;47.652;-2.730;2023-12-22T05:37:56;11.60;96.30
81192;DHT22;70665;47.652;-2.730;2023-12-22T05:40:22;11.50;96.80
81192;DHT22;70665;47.652;-2.730;2023-12-22T05:42:47;11.50;97.20
81192;DHT22;70665;47.652;-2.730;2023-12-22T05:45:14;11.40;97.70
81192;DHT22;70665;47.652;-2.730;2023-12-22T05:47:40;11.30;98.10
81192;DHT22;70665;47.652;-2.730;2023-12-22T05:50:06;11.30;98.20
81192;DHT22;70665;47.652;-2.730;2023-12-22T05:52:32;11.30;98.20
81192;DHT22;70665;47.652;-2.730;2023-12-22T05:54:58;11.20;98.00
81192;DHT22;70665;47.652;-2.730;2023-12-22T05:57:27;11.20;98.00
81192;DHT22;70665;47.652;-2.730;2023-12-22T05:59:52;11.20;97.90
81192;DHT22;70665;47.652;-2.730;2023-12-22T06:02:18;11.20;97.80
81192;DHT22;70665;47.652;-2.730;2023-12-22T06:04:43;11.20;97.30
81192;DHT22;70665;47.652;-2.730;2023-12-22T06:07:10;11.30;96.70
81192;DHT22;70665;47.652;-2.730;2023-12-22T06:09:36;11.40;95.90
81192;DHT22;70665;47.652;-2.730;2023-12-22T06:12:02;11.40;95.00
81192;DHT22;70665;47.652;-2.730;2023-12-22T06:14:28;11.60;94.50
81192;DHT22;70665;47.652;-2.730;2023-12-22T06:16:54;11.50;94.00
81192;DHT22;70665;47.652;-2.730;2023-12-22T06:19:22;11.60;93.40
81192;DHT22;70665;47.652;-2.730;2023-12-22T06:21:49;11.70;92.60
81192;DHT22;70665;47.652;-2.730;2023-12-22T06:24:15;11.70;92.30
81192;DHT22;70665;47.652;-2.730;2023-12-22T06:26:41;11.70;92.00
81192;DHT22;70665;47.652;-2.730;2023-12-22T06:29:07;11.70;92.20
81192;DHT22;70665;47.652;-2.730;2023-12-22T06:31:33;11.60;92.90
81192;DHT22;70665;47.652;-2.730;2023-12-22T06:33:58;11.50;94.30
81192;DHT22;70665;47.652;-2.730;2023-12-22T06:36:27;11.40;94.80
81192;DHT22;70665;47.652;-2.730;2023-12-22T06:38:53;11.30;94.50
81192;DHT22;70665;47.652;-2.730;2023-12-22T06:41:30;11.30;93.50
81192;DHT22;70665;47.652;-2.730;2023-12-22T06:43:59;11.30;93.40
81192;DHT22;70665;47.652;-2.730;2023-12-22T06:46:28;11.20;92.40
81192;DHT22;70665;47.652;-2.730;2023-12-22T06:48:57;11.30;90.40
81192;DHT22;70665;47.652;-2.730;2023-12-22T06:51:24;11.40;89.40
81192;DHT22;70665;47.652;-2.730;2023-12-22T06:53:51;11.40;88.20
81192;DHT22;70665;47.652;-2.730;2023-12-22T06:56:17;11.40;87.00
81192;DHT22;70665;47.652;-2.730;2023-12-22T06:58:43;11.40;86.60
81192;DHT22;70665;47.652;-2.730;2023-12-22T07:01:10;11.50;85.90
81192;DHT22;70665;47.652;-2.730;2023-12-22T07:03:37;11.50;86.10
81192;DHT22;70665;47.652;-2.730;2023-12-22T07:06:04;11.50;85.70
81192;DHT22;70665;47.652;-2.730;2023-12-22T07:08:29;11.60;86.10
81192;DHT22;70665;47.652;-2.730;2023-12-22T07:10:55;11.60;86.00
81192;DHT22;70665;47.652;-2.730;2023-12-22T07:13:21;11.70;85.90
81192;DHT22;70665;47.652;-2.730;2023-12-22T07:15:46;11.70;85.60
81192;DHT22;70665;47.652;-2.730;2023-12-22T07:18:12;11.80;85.80
81192;DHT22;70665;47.652;-2.730;2023-12-22T07:20:38;11.80;85.40
81192;DHT22;70665;47.652;-2.730;2023-12-22T07:23:04;11.90;84.90
81192;DHT22;70665;47.652;-2.730;2023-12-22T07:25:36;11.90;85.00
81192;DHT22;70665;47.652;-2.730;2023-12-22T07:28:01;11.90;84.60
81192;DHT22;70665;47.652;-2.730;2023-12-22T07:30:27;11.90;83.80
81192;DHT22;70665;47.652;-2.730;2023-12-22T07:32:52;11.80;83.40
81192;DHT22;70665;47.652;-2.730;2023-12-22T07:35:19;12.00;83.30
81192;DHT22;70665;47.652;-2.730;2023-12-22T07:37:44;12.00;83.30
81192;DHT22;70665;47.652;-2.730;2023-12-22T07:40:10;11.90;83.00
81192;DHT22;70665;47.652;-2.730;2023-12-22T07:42:36;11.90;82.90
81192;DHT22;70665;47.652;-2.730;2023-12-22T07:45:02;12.00;82.60
81192;DHT22;70665;47.652;-2.730;2023-12-22T07:47:28;12.00;82.30
81192;DHT22;70665;47.652;-2.730;2023-12-22T07:49:54;12.10;82.60
81192;DHT22;70665;47.652;-2.730;2023-12-22T07:52:19;12.20;81.70
81192;DHT22;70665;47.652;-2.730;2023-12-22T07:54:45;12.10;81.70
81192;DHT22;70665;47.652;-2.730;2023-12-22T07:57:12;12.10;81.90
81192;DHT22;70665;47.652;-2.730;2023-12-22T07:59:38;12.10;81.60
81192;DHT22;70665;47.652;-2.730;2023-12-22T08:02:04;12.20;81.70
81192;DHT22;70665;47.652;-2.730;2023-12-22T08:04:30;12.20;81.80
81192;DHT22;70665;47.652;-2.730;2023-12-22T08:06:55;12.10;81.20
81192;DHT22;70665;47.652;-2.730;2023-12-22T08:09:21;12.10;80.80
81192;DHT22;70665;47.652;-2.730;2023-12-22T08:11:48;12.20;81.30
81192;DHT22;70665;47.652;-2.730;2023-12-22T08:14:20;12.30;81.40
81192;DHT22;70665;47.652;-2.730;2023-12-22T08:16:46;12.30;81.20
81192;DHT22;70665;47.652;-2.730;2023-12-22T08:19:11;12.40;80.80
81192;DHT22;70665;47.652;-2.730;2023-12-22T08:21:37;12.20;80.50
81192;DHT22;70665;47.652;-2.730;2023-12-22T08:24:03;12.30;80.40
81192;DHT22;70665;47.652;-2.730;2023-12-22T08:26:28;12.30;80.30
81192;DHT22;70665;47.652;-2.730;2023-12-22T08:28:54;12.40;80.30
81192;DHT22;70665;47.652;-2.730;2023-12-22T08:31:20;12.40;79.70
81192;DHT22;70665;47.652;-2.730;2023-12-22T08:33:45;12.60;79.70
81192;DHT22;70665;47.652;-2.730;2023-12-22T08:36:11;12.50;79.40
81192;DHT22;70665;47.652;-2.730;2023-12-22T08:38:37;12.60;79.20
81192;DHT22;70665;47.652;-2.730;2023-12-22T08:41:06;12.50;78.50
81192;DHT22;70665;47.652;-2.730;2023-12-22T08:43:33;12.40;78.50
81192;DHT22;70665;47.652;-2.730;2023-12-22T08:45:58;12.60;79.00
81192;DHT22;70665;47.652;-2.730;2023-12-22T08:48:24;12.80;78.90
81192;DHT22;70665;47.652;-2.730;2023-12-22T08:50:49;12.80;77.80
81192;DHT22;70665;47.652;-2.730;2023-12-22T08:53:15;12.90;78.50
81192;DHT22;70665;47.652;-2.730;2023-12-22T08:55:41;12.80;76.40
81192;DHT22;70665;47.652;-2.730;2023-12-22T08:58:06;12.90;75.20
81192;DHT22;70665;47.652;-2.730;2023-12-22T09:00:32;12.90;76.60
81192;DHT22;70665;47.652;-2.730;2023-12-22T09:02:57;13.00;74.60
81192;DHT22;70665;47.652;-2.730;2023-12-22T09:05:23;13.10;75.50
81192;DHT22;70665;47.652;-2.730;2023-12-22T09:07:49;13.10;74.80
81192;DHT22;70665;47.652;-2.730;2023-12-22T09:10:14;13.20;73.40
81192;DHT22;70665;47.652;-2.730;2023-12-22T09:12:40;13.10;74.20
81192;DHT22;70665;47.652;-2.730;2023-12-22T09:15:06;13.10;75.30
81192;DHT22;70665;47.652;-2.730;2023-12-22T09:17:31;13.10;75.00
81192;DHT22;70665;47.652;-2.730;2023-12-22T09:19:58;13.10;75.50
81192;DHT22;70665;47.652;-2.730;2023-12-22T09:22:23;13.00;74.80
81192;DHT22;70665;47.652;-2.730;2023-12-22T09:24:49;13.00;75.30
81192;DHT22;70665;47.652;-2.730;2023-12-22T09:27:15;13.10;75.40
81192;DHT22;70665;47.652;-2.730;2023-12-22T09:29:40;13.00;75.10
81192;DHT22;70665;47.652;-2.730;2023-12-22T09:32:06;13.00;75.60
81192;DHT22;70665;47.652;-2.730;2023-12-22T09:34:32;13.00;75.90
81192;DHT22;70665;47.652;-2.730;2023-12-22T09:36:57;13.10;76.10
81192;DHT22;70665;47.652;-2.730;2023-12-22T09:39:23;13.00;75.60
81192;DHT22;70665;47.652;-2.730;2023-12-22T09:41:49;13.10;75.30
81192;DHT22;70665;47.652;-2.730;2023-12-22T09:44:20;13.30;76.30
81192;DHT22;70665;47.652;-2.730;2023-12-22T09:46:48;13.40;76.20
81192;DHT22;70665;47.652;-2.730;2023-12-22T09:49:17;13.30;75.10
81192;DHT22;70665;47.652;-2.730;2023-12-22T09:51:44;13.20;75.70
81192;DHT22;70665;47.652;-2.730;2023-12-22T09:54:10;13.30;76.00
81192;DHT22;70665;47.652;-2.730;2023-12-22T09:56:36;13.50;75.60
81192;DHT22;70665;47.652;-2.730;2023-12-22T09:59:08;13.40;75.70
81192;DHT22;70665;47.652;-2.730;2023-12-22T10:01:34;13.50;75.70
81192;DHT22;70665;47.652;-2.730;2023-12-22T10:04:01;13.60;75.30
81192;DHT22;70665;47.652;-2.730;2023-12-22T10:06:26;13.60;75.70
81192;DHT22;70665;47.652;-2.730;2023-12-22T10:08:53;13.60;75.70
81192;DHT22;70665;47.652;-2.730;2023-12-22T10:11:20;13.70;75.60
81192;DHT22;70665;47.652;-2.730;2023-12-22T10:13:49;13.60;74.50
81192;DHT22;70665;47.652;-2.730;2023-12-22T10:16:15;13.80;75.70
81192;DHT22;70665;47.652;-2.730;2023-12-22T10:18:41;13.90;73.30
81192;DHT22;70665;47.652;-2.730;2023-12-22T10:21:07;14.00;72.80
81192;DHT22;70665;47.652;-2.730;2023-12-22T10:23:32;13.90;72.00
81192;DHT22;70665;47.652;-2.730;2023-12-22T10:25:58;13.90;72.70
81192;DHT22;70665;47.652;-2.730;2023-12-22T10:28:24;13.70;72.00
81192;DHT22;70665;47.652;-2.730;2023-12-22T10:30:53;13.80;72.10
81192;DHT22;70665;47.652;-2.730;2023-12-22T10:33:21;13.80;72.10
81192;DHT22;70665;47.652;-2.730;2023-12-22T10:35:46;13.80;72.20
81192;DHT22;70665;47.652;-2.730;2023-12-22T10:38:14;13.60;72.00
81192;DHT22;70665;47.652;-2.730;2023-12-22T10:40:39;13.60;72.60
81192;DHT22;70665;47.652;-2.730;2023-12-22T10:43:05;13.50;73.30
81192;DHT22;70665;47.652;-2.730;2023-12-22T10:45:31;13.70;72.80
81192;DHT22;70665;47.652;-2.730;2023-12-22T10:47:57;13.80;72.50
81192;DHT22;70665;47.652;-2.730;2023-12-22T10:50:23;13.80;73.10
81192;DHT22;70665;47.652;-2.730;2023-12-22T10:52:53;13.70;72.80
81192;DHT22;70665;47.652;-2.730;2023-12-22T10:55:19;13.80;73.30
81192;DHT22;70665;47.652;-2.730;2023-12-22T10:57:46;13.80;72.50
81192;DHT22;70665;47.652;-2.730;2023-12-22T11:00:12;13.80;72.00
81192;DHT22;70665;47.652;-2.730;2023-12-22T11:02:42;14.10;72.20
81192;DHT22;70665;47.652;-2.730;2023-12-22T11:05:10;14.10;71.10
81192;DHT22;70665;47.652;-2.730;2023-12-22T11:07:36;14.00;70.70
81192;DHT22;70665;47.652;-2.730;2023-12-22T11:10:06;14.10;71.60
81192;DHT22;70665;47.652;-2.730;2023-12-22T11:12:35;14.10;71.20
81192;DHT22;70665;47.652;-2.730;2023-12-22T11:15:02;14.00;70.50
81192;DHT22;70665;47.652;-2.730;2023-12-22T11:17:29;14.10;71.10
81192;DHT22;70665;47.652;-2.730;2023-12-22T11:19:56;14.00;70.90
81192;DHT22;70665;47.652;-2.730;2023-12-22T11:22:22;14.30;71.70
81192;DHT22;70665;47.652;-2.730;2023-12-22T11:24:48;14.10;70.50
81192;DHT22;70665;47.652;-2.730;2023-12-22T11:27:19;14.20;71.20
81192;DHT22;70665;47.652;-2.730;2023-12-22T11:29:49;14.30;71.20
81192;DHT22;70665;47.652;-2.730;2023-12-22T11:32:18;14.30;70.30
81192;DHT22;70665;47.652;-2.730;2023-12-22T11:34:45;14.10;71.30
81192;DHT22;70665;47.652;-2.730;2023-12-22T11:37:15;14.00;71.50
81192;DHT22;70665;47.652;-2.730;2023-12-22T11:39:42;13.80;72.10
81192;DHT22;70665;47.652;-2.730;2023-12-22T11:42:16;13.80;73.20
81192;DHT22;70665;47.652;-2.730;2023-12-22T11:44:42;13.70;73.40
81192;DHT22;70665;47.652;-2.730;2023-12-22T11:47:09;13.60;73.70
81192;DHT22;70665;47.652;-2.730;2023-12-22T11:49:36;13.60;73.50
81192;DHT22;70665;47.652;-2.730;2023-12-22T11:52:18;13.60;73.80
81192;DHT22;70665;47.652;-2.730;2023-12-22T11:54:53;13.50;74.70
81192;DHT22;70665;47.652;-2.730;2023-12-22T11:57:32;13.70;74.00
81192;DHT22;70665;47.652;-2.730;2023-12-22T12:00:01;13.70;73.10
81192;DHT22;70665;47.652;-2.730;2023-12-22T12:02:30;13.90;74.10
81192;DHT22;70665;47.652;-2.730;2023-12-22T12:04:58;13.90;73.10
81192;DHT22;70665;47.652;-2.730;2023-12-22T12:10:08;14.20;71.60
81192;DHT22;70665;47.652;-2.730;2023-12-22T12:12:34;14.20;70.20
81192;DHT22;70665;47.652;-2.730;2023-12-22T12:15:13;14.00;70.00
81192;DHT22;70665;47.652;-2.730;2023-12-22T12:17:42;14.10;71.20
81192;DHT22;70665;47.652;-2.730;2023-12-22T12:20:09;14.10;71.30
81192;DHT22;70665;47.652;-2.730;2023-12-22T12:22:37;14.10;70.00
81192;DHT22;70665;47.652;-2.730;2023-12-22T12:25:10;14.20;71.10
81192;DHT22;70665;47.652;-2.730;2023-12-22T12:27:37;14.20;72.30
81192;DHT22;70665;47.652;-2.730;2023-12-22T12:30:11;14.10;70.40
81192;DHT22;70665;47.652;-2.730;2023-12-22T12:32:36;14.00;70.80
81192;DHT22;70665;47.652;-2.730;2023-12-22T12:35:03;14.10;71.70
81192;DHT22;70665;47.652;-2.730;2023-12-22T12:37:29;14.00;71.00
81192;DHT22;70665;47.652;-2.730;2023-12-22T12:39:58;14.00;71.40
81192;DHT22;70665;47.652;-2.730;2023-12-22T12:42:29;13.80;72.40
81192;DHT22;70665;47.652;-2.730;2023-12-22T12:44:56;13.80;72.00
81192;DHT22;70665;47.652;-2.730;2023-12-22T12:47:21;13.90;72.80
81192;DHT22;70665;47.652;-2.730;2023-12-22T12:49:56;13.80;72.60
81192;DHT22;70665;47.652;-2.730;2023-12-22T12:52:23;13.70;72.70
81192;DHT22;70665;47.652;-2.730;2023-12-22T12:54:50;13.90;74.20
81192;DHT22;70665;47.652;-2.730;2023-12-22T12:57:17;14.00;72.40
81192;DHT22;70665;47.652;-2.730;2023-12-22T12:59:49;13.90;72.80
81192;DHT22;70665;47.652;-2.730;2023-12-22T13:02:16;13.80;72.20
81192;DHT22;70665;47.652;-2.730;2023-12-22T13:04:42;13.90;73.10
81192;DHT22;70665;47.652;-2.730;2023-12-22T13:07:08;14.10;72.40
81192;DHT22;70665;47.652;-2.730;2023-12-22T13:09:36;14.20;72.10
81192;DHT22;70665;47.652;-2.730;2023-12-22T13:12:03;14.20;71.10
81192;DHT22;70665;47.652;-2.730;2023-12-22T13:14:29;14.20;70.80
81192;DHT22;70665;47.652;-2.730;2023-12-22T13:16:55;14.40;71.80
81192;DHT22;70665;47.652;-2.730;2023-12-22T13:19:22;14.30;71.40
81192;DHT22;70665;47.652;-2.730;2023-12-22T13:21:50;14.40;71.00
81192;DHT22;70665;47.652;-2.730;2023-12-22T13:24:16;14.30;70.60
81192;DHT22;70665;47.652;-2.730;2023-12-22T13:26:43;14.60;71.30
81192;DHT22;70665;47.652;-2.730;2023-12-22T13:29:11;14.60;71.70
81192;DHT22;70665;47.652;-2.730;2023-12-22T13:31:38;14.50;71.70
81192;DHT22;70665;47.652;-2.730;2023-12-22T13:34:12;14.40;71.00
81192;DHT22;70665;47.652;-2.730;2023-12-22T13:36:39;14.50;71.50
81192;DHT22;70665;47.652;-2.730;2023-12-22T13:39:05;14.40;70.50
81192;DHT22;70665;47.652;-2.730;2023-12-22T13:41:42;14.30;71.80
81192;DHT22;70665;47.652;-2.730;2023-12-22T13:44:11;14.30;71.80
81192;DHT22;70665;47.652;-2.730;2023-12-22T13:46:37;14.30;72.30
81192;DHT22;70665;47.652;-2.730;2023-12-22T13:49:10;14.30;73.80
81192;DHT22;70665;47.652;-2.730;2023-12-22T13:51:40;14.30;72.90
81192;DHT22;70665;47.652;-2.730;2023-12-22T13:54:05;14.20;73.10
81192;DHT22;70665;47.652;-2.730;2023-12-22T13:56:35;14.30;72.50
81192;DHT22;70665;47.652;-2.730;2023-12-22T13:59:02;14.20;73.80
81192;DHT22;70665;47.652;-2.730;2023-12-22T14:01:27;13.90;74.40
81192;DHT22;70665;47.652;-2.730;2023-12-22T14:03:53;13.90;75.30
81192;DHT22;70665;47.652;-2.730;2023-12-22T14:06:19;14.00;75.30
81192;DHT22;70665;47.652;-2.730;2023-12-22T14:08:45;14.10;75.30
81192;DHT22;70665;47.652;-2.730;2023-12-22T14:11:10;14.20;75.70
81192;DHT22;70665;47.652;-2.730;2023-12-22T14:13:36;14.20;75.40
81192;DHT22;70665;47.652;-2.730;2023-12-22T14:16:08;14.60;75.50
81192;DHT22;70665;47.652;-2.730;2023-12-22T14:18:33;15.40;72.60
81192;DHT22;70665;47.652;-2.730;2023-12-22T14:20:59;15.90;68.80
81192;DHT22;70665;47.652;-2.730;2023-12-22T14:23:24;15.90;69.70
81192;DHT22;70665;47.652;-2.730;2023-12-22T14:25:50;15.80;69.60
81192;DHT22;70665;47.652;-2.730;2023-12-22T14:28:16;15.30;71.50
81192;DHT22;70665;47.652;-2.730;2023-12-22T14:30:41;15.20;72.50
81192;DHT22;70665;47.652;-2.730;2023-12-22T14:33:08;15.20;71.90
81192;DHT22;70665;47.652;-2.730;2023-12-22T14:35:35;15.00;73.50
81192;DHT22;70665;47.652;-2.730;2023-12-22T14:38:00;14.80;74.50
81192;DHT22;70665;47.652;-2.730;2023-12-22T14:40:26;14.70;73.80
81192;DHT22;70665;47.652;-2.730;2023-12-22T14:42:51;14.60;75.00
81192;DHT22;70665;47.652;-2.730;2023-12-22T14:45:17;14.30;75.70
81192;DHT22;70665;47.652;-2.730;2023-12-22T14:47:43;14.10;76.50
81192;DHT22;70665;47.652;-2.730;2023-12-22T14:50:08;13.80;77.30
81192;DHT22;70665;47.652;-2.730;2023-12-22T14:52:34;13.80;77.60
81192;DHT22;70665;47.652;-2.730;2023-12-22T14:55:00;13.70;78.00
81192;DHT22;70665;47.652;-2.730;2023-12-22T14:57:26;13.80;77.90
81192;DHT22;70665;47.652;-2.730;2023-12-22T14:59:54;13.70;78.10
81192;DHT22;70665;47.652;-2.730;2023-12-22T15:02:20;13.60;78.20
81192;DHT22;70665;47.652;-2.730;2023-12-22T15:04:46;13.60;78.10
81192;DHT22;70665;47.652;-2.730;2023-12-22T15:07:19;13.80;77.60
81192;DHT22;70665;47.652;-2.730;2023-12-22T15:09:45;14.30;76.40
81192;DHT22;70665;47.652;-2.730;2023-12-22T15:12:16;15.30;72.00
81192;DHT22;70665;47.652;-2.730;2023-12-22T15:14:46;16.10;68.30
81192;DHT22;70665;47.652;-2.730;2023-12-22T15:17:12;16.60;66.00